Terminal Aerodrome Forecast
Issued by NWS Wilmington, OH

Current Version | Previous Version | Text Only | Print | Product List | Glossary Off
Versions: 1 2 3 4 5 6 7 8 9 10 11 12 13

000
FTUS41 KILN 221133
TAFILN
TAF
KILN 221133Z 2212/2312 00000KT P6SM SKC
     FM221400 07004KT P6SM SCT050
     FM222300 00000KT P6SM SKC=

USA.gov is the U.S. government's official web portal to all federal, state and local government web resources and services.